createdAt,value
2023-02-19T00:00:23.515Z,74.66
2023-02-19T00:01:27.156Z,73.91
2023-02-19T00:02:28.948Z,74.47
2023-02-19T00:03:30.609Z,74.28
2023-02-19T00:04:32.251Z,74.01
2023-02-19T00:05:35.338Z,74.11
2023-02-19T00:06:37.048Z,74.66
2023-02-19T00:07:38.636Z,73.86
2023-02-19T00:08:40.954Z,74.08
2023-02-19T00:09:43.870Z,73.41
2023-02-19T00:10:45.416Z,73.51
2023-02-19T00:11:47.836Z,74.41
2023-02-19T00:12:49.470Z,74.01
2023-02-19T00:13:53.261Z,74.03
2023-02-19T00:14:57.120Z,74.21
2023-02-19T00:15:58.775Z,72.84
2023-02-19T00:17:00.355Z,73.55
2023-02-19T00:18:01.910Z,73.48
2023-02-19T00:19:06.324Z,72.04
2023-02-19T00:20:08.342Z,71.69
2023-02-19T00:21:10.834Z,71.19
2023-02-19T00:22:12.545Z,71.00
2023-02-19T00:23:14.125Z,71.17
2023-02-19T00:24:15.678Z,70.63
2023-02-19T00:25:17.314Z,70.98
2023-02-19T00:26:19.468Z,70.45
2023-02-19T00:27:22.348Z,70.50
2023-02-19T00:28:23.901Z,70.12
2023-02-19T00:29:25.442Z,71.59
2023-02-19T00:30:27.084Z,72.48
2023-02-19T00:31:34.040Z,73.91
2023-02-19T00:32:35.694Z,74.10
2023-02-19T00:33:37.231Z,74.07
2023-02-19T00:34:38.789Z,74.57
2023-02-19T00:35:40.292Z,74.26
2023-02-19T00:36:42.945Z,74.32
2023-02-19T00:37:44.506Z,73.76
2023-02-19T00:38:46.448Z,74.09
2023-02-19T00:39:48.549Z,73.78
2023-02-19T00:40:50.080Z,73.75
2023-02-19T00:41:52.398Z,72.27
2023-02-19T00:42:53.953Z,72.75
2023-02-19T00:44:00.602Z,72.42
2023-02-19T00:45:02.174Z,72.49
2023-02-19T00:46:04.004Z,71.99
2023-02-19T00:47:05.945Z,71.02
2023-02-19T00:48:07.544Z,71.39
2023-02-19T00:49:15.020Z,70.12
2023-02-19T00:50:16.639Z,70.13
2023-02-19T00:51:19.120Z,70.85
2023-02-19T00:52:20.682Z,70.12
2023-02-19T00:53:22.230Z,71.51
2023-02-19T00:54:24.005Z,71.96
2023-02-19T00:55:25.550Z,72.48
2023-02-19T00:56:27.285Z,72.37
2023-02-19T00:57:28.949Z,73.79
2023-02-19T00:58:30.542Z,74.10
2023-02-19T00:59:32.062Z,73.71
2023-02-19T01:00:33.701Z,74.51
2023-02-19T01:01:35.368Z,74.70
2023-02-19T01:02:36.940Z,74.70
2023-02-19T01:03:39.874Z,75.67
2023-02-19T01:04:41.431Z,74.55
2023-02-19T01:05:42.987Z,74.73
2023-02-19T01:06:44.670Z,74.74
2023-02-19T01:07:46.232Z,75.07
2023-02-19T01:08:48.290Z,75.32
2023-02-19T01:09:49.974Z,75.27
2023-02-19T01:10:51.504Z,74.64
2023-02-19T01:11:53.023Z,75.26
2023-02-19T01:12:54.600Z,74.76
2023-02-19T01:14:00.891Z,74.28
2023-02-19T01:15:02.409Z,74.00
2023-02-19T01:16:13.769Z,73.47
2023-02-19T01:17:15.323Z,73.13
2023-02-19T01:18:17.090Z,72.59
2023-02-19T01:19:18.672Z,72.28
2023-02-19T01:20:20.180Z,73.04
2023-02-19T01:21:24.085Z,72.18
2023-02-19T01:22:25.697Z,73.05
2023-02-19T01:23:27.230Z,72.63
2023-02-19T01:24:28.787Z,71.88
2023-02-19T01:25:30.368Z,72.08
2023-02-19T01:26:33.412Z,72.01
2023-02-19T01:27:34.964Z,71.58
2023-02-19T01:28:36.520Z,71.52
2023-02-19T01:29:38.156Z,72.44
2023-02-19T01:30:39.780Z,73.01
2023-02-19T01:31:42.409Z,73.25
2023-02-19T01:32:44.038Z,73.22
2023-02-19T01:33:55.056Z,72.87
2023-02-19T01:34:56.625Z,73.13
2023-02-19T01:35:58.604Z,72.44
2023-02-19T01:37:00.227Z,72.72
2023-02-19T01:38:01.793Z,72.52
2023-02-19T01:39:05.783Z,71.98
2023-02-19T01:40:07.971Z,72.06
2023-02-19T01:41:12.658Z,71.76
2023-02-19T01:42:17.033Z,72.13
2023-02-19T01:43:18.588Z,72.47
2023-02-19T01:44:20.096Z,71.35
2023-02-19T01:45:21.662Z,71.12
2023-02-19T01:46:29.368Z,71.29
2023-02-19T01:47:31.029Z,71.17
2023-02-19T01:48:38.319Z,71.27
2023-02-19T01:49:54.899Z,72.23
2023-02-19T01:51:17.885Z,72.27
2023-02-19T01:52:27.088Z,72.28
2023-02-19T01:53:32.128Z,71.61
2023-02-19T01:54:38.293Z,72.61
2023-02-19T01:55:40.988Z,72.84
2023-02-19T01:56:44.830Z,73.27
2023-02-19T01:57:51.635Z,72.92
2023-02-19T01:58:54.027Z,73.20
2023-02-19T02:00:00.261Z,73.32
2023-02-19T02:01:04.840Z,74.07
2023-02-19T02:02:06.883Z,74.64
2023-02-19T02:03:08.706Z,75.72
2023-02-19T02:04:12.243Z,76.42
2023-02-19T02:05:39.944Z,76.77
2023-02-19T02:06:50.154Z,77.17
2023-02-19T02:08:10.916Z,76.41
2023-02-19T02:09:31.529Z,75.42
2023-02-19T02:10:34.114Z,76.28
2023-02-19T02:11:36.296Z,75.13
2023-02-19T02:12:37.896Z,75.26
2023-02-19T02:13:40.813Z,75.73
2023-02-19T02:14:47.378Z,75.34
2023-02-19T02:15:57.328Z,76.03
2023-02-19T02:17:13.852Z,77.73
2023-02-19T02:18:48.229Z,77.95
2023-02-19T02:20:06.912Z,77.31
2023-02-19T02:21:29.803Z,77.60
2023-02-19T02:22:38.902Z,77.58
2023-02-19T02:24:10.195Z,78.49
2023-02-19T02:25:20.879Z,78.96
2023-02-19T02:26:35.628Z,78.95
2023-02-19T02:27:49.348Z,79.54
2023-02-19T02:29:19.093Z,80.37
2023-02-19T02:30:46.275Z,80.41
2023-02-19T02:32:21.721Z,79.83
2023-02-19T02:33:45.499Z,79.58
2023-02-19T02:34:56.377Z,81.00
2023-02-19T02:36:08.807Z,81.49
2023-02-19T02:37:12.416Z,82.53
2023-02-19T02:38:15.296Z,81.57
2023-02-19T02:39:21.059Z,81.73
2023-02-19T02:40:22.643Z,81.18
2023-02-19T02:41:25.220Z,80.56
2023-02-19T02:42:29.703Z,80.89
2023-02-19T02:43:31.986Z,80.68
2023-02-19T02:44:37.457Z,81.15
2023-02-19T02:45:40.082Z,80.67
2023-02-19T02:46:44.881Z,81.73
2023-02-19T02:47:56.563Z,81.49
2023-02-19T02:49:03.370Z,81.79
2023-02-19T02:50:05.448Z,81.26
2023-02-19T02:51:41.551Z,81.71
2023-02-19T02:53:06.677Z,81.94
2023-02-19T02:54:37.217Z,82.43
2023-02-19T02:55:43.188Z,82.21
2023-02-19T02:56:46.917Z,81.34
2023-02-19T02:57:48.503Z,80.55
2023-02-19T02:58:51.846Z,80.72
2023-02-19T02:59:53.660Z,81.41
2023-02-19T03:01:20.002Z,81.98
2023-02-19T03:02:26.178Z,82.24
2023-02-19T03:03:30.804Z,82.09
2023-02-19T03:05:18.677Z,82.48
2023-02-19T03:06:23.589Z,84.84
2023-02-19T03:07:29.134Z,85.62
2023-02-19T03:08:38.283Z,86.16
2023-02-19T03:09:43.234Z,86.41
2023-02-19T03:10:47.377Z,86.15
2023-02-19T03:12:09.954Z,86.23
2023-02-19T03:13:38.907Z,86.63
2023-02-19T03:15:13.150Z,86.84
2023-02-19T03:16:42.923Z,86.85
2023-02-19T03:18:09.587Z,87.42
2023-02-19T03:19:19.200Z,87.51
2023-02-19T03:20:24.582Z,86.85
2023-02-19T03:21:28.639Z,86.36
2023-02-19T03:22:34.026Z,85.85
2023-02-19T03:23:55.731Z,85.68
2023-02-19T03:25:19.960Z,85.57
2023-02-19T03:26:22.158Z,84.94
2023-02-19T03:27:28.234Z,84.31
2023-02-19T03:28:51.755Z,84.54
2023-02-19T03:29:56.539Z,83.45
2023-02-19T03:30:58.171Z,83.33
2023-02-19T03:32:08.887Z,83.21
2023-02-19T03:33:17.349Z,83.81
2023-02-19T03:34:48.642Z,83.39
2023-02-19T03:35:56.350Z,84.04
2023-02-19T03:37:13.357Z,83.70
2023-02-19T03:38:29.930Z,83.50
2023-02-19T03:39:32.387Z,83.59
2023-02-19T03:40:44.409Z,83.76
2023-02-19T03:42:24.209Z,84.38
2023-02-19T03:44:03.139Z,84.70
2023-02-19T03:45:15.055Z,84.50
2023-02-19T03:46:44.848Z,84.73
2023-02-19T03:48:00.484Z,84.83
2023-02-19T03:49:08.528Z,85.21
2023-02-19T03:50:19.981Z,85.02
2023-02-19T03:51:39.610Z,85.14
2023-02-19T03:52:58.357Z,84.39
2023-02-19T03:54:13.240Z,84.59
2023-02-19T03:55:34.264Z,85.39
2023-02-19T03:56:45.324Z,87.32
2023-02-19T03:58:07.742Z,88.46
2023-02-19T03:59:35.438Z,88.87
2023-02-19T04:01:09.597Z,87.99
2023-02-19T04:02:24.301Z,86.98
2023-02-19T04:03:44.360Z,87.52
2023-02-19T04:04:51.836Z,88.87
2023-02-19T04:06:02.790Z,90.14
2023-02-19T04:07:04.788Z,90.90
2023-02-19T04:08:13.608Z,90.28
2023-02-19T04:09:16.729Z,88.21
2023-02-19T04:10:19.854Z,87.38
2023-02-19T04:11:23.156Z,87.00
2023-02-19T04:12:25.341Z,86.48
2023-02-19T04:13:32.987Z,87.42
2023-02-19T04:14:43.954Z,88.79
2023-02-19T04:15:48.657Z,90.90
2023-02-19T04:16:55.792Z,90.87
2023-02-19T04:18:06.002Z,90.10
2023-02-19T04:19:11.678Z,89.53
2023-02-19T04:20:14.396Z,88.99
2023-02-19T04:21:16.737Z,88.41
2023-02-19T04:22:19.440Z,87.58
2023-02-19T04:23:26.573Z,86.55
2023-02-19T04:24:34.480Z,86.16
2023-02-19T04:25:39.812Z,85.99
2023-02-19T04:26:42.855Z,86.62
2023-02-19T04:27:45.868Z,87.83
2023-02-19T04:28:47.464Z,89.06
2023-02-19T04:29:49.132Z,89.87
2023-02-19T04:30:50.756Z,89.80
2023-02-19T04:31:52.425Z,88.63
2023-02-19T04:32:54.045Z,87.75
2023-02-19T04:33:55.610Z,87.26
2023-02-19T04:34:57.175Z,86.97
2023-02-19T04:35:58.732Z,86.58
2023-02-19T04:37:00.306Z,86.45
2023-02-19T04:38:01.900Z,85.88
2023-02-19T04:39:03.814Z,85.22
2023-02-19T04:40:05.995Z,85.33
2023-02-19T04:41:09.788Z,84.91
2023-02-19T04:42:11.547Z,84.32
2023-02-19T04:43:13.162Z,84.34
2023-02-19T04:44:14.714Z,84.67
2023-02-19T04:45:16.315Z,83.60
2023-02-19T04:46:17.945Z,83.40
2023-02-19T04:47:19.502Z,82.89
2023-02-19T04:48:21.064Z,83.29
2023-02-19T04:49:22.650Z,83.33
2023-02-19T04:50:24.521Z,83.45
2023-02-19T04:51:26.065Z,83.20
2023-02-19T04:52:27.640Z,82.61
2023-02-19T04:53:29.187Z,82.49
2023-02-19T04:54:30.752Z,82.29
2023-02-19T04:55:32.683Z,82.12
2023-02-19T04:56:34.449Z,82.09
2023-02-19T04:57:36.209Z,82.32
2023-02-19T04:58:38.408Z,81.81
2023-02-19T04:59:39.987Z,81.61
2023-02-19T05:00:41.554Z,82.33
2023-02-19T05:01:43.274Z,82.20
2023-02-19T05:02:44.917Z,81.81
2023-02-19T05:03:46.770Z,81.42
2023-02-19T05:04:48.833Z,81.20
2023-02-19T05:05:50.398Z,81.11
2023-02-19T05:06:51.973Z,80.54
2023-02-19T05:07:54.004Z,80.18
2023-02-19T05:08:55.546Z,80.39
2023-02-19T05:09:57.141Z,80.14
2023-02-19T05:11:03.094Z,80.85
2023-02-19T05:12:04.720Z,81.27
2023-02-19T05:13:06.240Z,81.11
2023-02-19T05:14:07.770Z,81.96
2023-02-19T05:15:09.395Z,82.19
2023-02-19T05:16:16.276Z,81.72
2023-02-19T05:17:18.070Z,82.96
2023-02-19T05:18:19.629Z,84.12
2023-02-19T05:19:21.258Z,84.54
2023-02-19T05:20:23.071Z,83.81
2023-02-19T05:21:24.789Z,84.47
2023-02-19T05:22:26.350Z,84.40
2023-02-19T05:23:28.688Z,84.79
2023-02-19T05:24:31.585Z,85.00
2023-02-19T05:25:33.134Z,84.75
2023-02-19T05:26:34.818Z,84.62
2023-02-19T05:27:36.325Z,83.96
2023-02-19T05:28:38.074Z,83.91
2023-02-19T05:29:39.660Z,83.44
2023-02-19T05:30:41.225Z,83.63
2023-02-19T05:31:42.913Z,83.59
2023-02-19T05:32:44.550Z,83.34
2023-02-19T05:33:50.211Z,83.26
2023-02-19T05:34:51.820Z,83.55
2023-02-19T05:35:55.360Z,83.35
2023-02-19T05:36:56.920Z,83.10
2023-02-19T05:37:58.551Z,83.43
2023-02-19T05:39:00.367Z,83.29
2023-02-19T05:40:01.952Z,82.88
2023-02-19T05:41:11.688Z,83.02
2023-02-19T05:42:14.970Z,82.84
2023-02-19T05:43:17.186Z,83.01
2023-02-19T05:44:18.729Z,83.15
2023-02-19T05:45:20.253Z,82.59
2023-02-19T05:46:24.762Z,83.20
2023-02-19T05:47:26.303Z,82.92
2023-02-19T05:48:27.815Z,82.50
2023-02-19T05:49:29.386Z,82.16
2023-02-19T05:50:38.692Z,83.81
2023-02-19T05:51:41.235Z,83.02
2023-02-19T05:52:44.236Z,83.17
2023-02-19T05:53:46.797Z,82.60
2023-02-19T05:54:48.359Z,82.60
2023-02-19T05:55:49.884Z,82.61
2023-02-19T05:56:51.580Z,82.48
2023-02-19T05:57:53.168Z,82.35
2023-02-19T05:58:55.546Z,81.85
2023-02-19T05:59:57.178Z,81.14
2023-02-19T06:00:58.711Z,80.31
2023-02-19T06:02:00.317Z,80.18
2023-02-19T06:03:02.258Z,80.64
2023-02-19T06:04:04.195Z,81.13
2023-02-19T06:05:06.504Z,81.17
2023-02-19T06:06:08.413Z,81.02
2023-02-19T06:07:09.967Z,80.66
2023-02-19T06:08:16.100Z,80.08
2023-02-19T06:09:17.885Z,80.58
2023-02-19T06:10:19.807Z,80.99
2023-02-19T06:11:21.769Z,79.74
2023-02-19T06:12:23.739Z,80.18
2023-02-19T06:13:25.288Z,80.16
2023-02-19T06:14:26.871Z,80.06
2023-02-19T06:15:29.994Z,80.42
2023-02-19T06:16:33.628Z,79.78
2023-02-19T06:17:35.740Z,80.31
2023-02-19T06:18:37.665Z,81.86
2023-02-19T06:19:39.269Z,81.99
2023-02-19T06:20:40.851Z,82.42
2023-02-19T06:21:42.363Z,82.02
2023-02-19T06:22:43.934Z,83.62
2023-02-19T06:23:45.951Z,84.03
2023-02-19T06:24:48.518Z,83.68
2023-02-19T06:25:50.094Z,83.87
2023-02-19T06:26:51.675Z,84.14
2023-02-19T06:27:53.211Z,84.82
2023-02-19T06:28:54.829Z,86.52
2023-02-19T06:29:56.425Z,86.17
2023-02-19T06:31:01.193Z,86.00
2023-02-19T06:32:02.849Z,85.82
2023-02-19T06:33:04.513Z,84.82
2023-02-19T06:34:06.101Z,84.49
2023-02-19T06:35:07.828Z,84.32
2023-02-19T06:36:18.069Z,84.50
2023-02-19T06:37:19.606Z,83.50
2023-02-19T06:38:22.236Z,82.99
2023-02-19T06:39:23.800Z,82.54
2023-02-19T06:40:25.361Z,82.80
2023-02-19T06:41:27.013Z,82.91
2023-02-19T06:42:32.127Z,82.42
2023-02-19T06:43:34.697Z,82.69
2023-02-19T06:44:36.361Z,81.93
2023-02-19T06:45:37.909Z,81.96
2023-02-19T06:46:39.652Z,81.60
2023-02-19T06:47:41.284Z,80.60
2023-02-19T06:48:44.732Z,81.09
2023-02-19T06:49:46.278Z,80.28
2023-02-19T06:50:47.799Z,80.46
2023-02-19T06:51:49.378Z,80.52
2023-02-19T06:52:50.936Z,80.86
2023-02-19T06:53:53.191Z,80.79
2023-02-19T06:54:54.743Z,80.26
2023-02-19T06:56:05.360Z,80.31
2023-02-19T06:57:06.894Z,80.55
2023-02-19T06:58:08.518Z,79.98
2023-02-19T06:59:13.056Z,79.63
2023-02-19T07:00:15.029Z,80.45
2023-02-19T07:01:17.190Z,79.95
2023-02-19T07:02:18.789Z,80.09
2023-02-19T07:03:20.662Z,79.67
2023-02-19T07:04:22.264Z,79.93
2023-02-19T07:05:23.907Z,78.30
2023-02-19T07:06:26.979Z,79.36
2023-02-19T07:07:28.509Z,79.60
2023-02-19T07:08:30.707Z,79.18
2023-02-19T07:09:32.464Z,79.34
2023-02-19T07:10:34.051Z,78.81
2023-02-19T07:11:38.959Z,78.41
2023-02-19T07:12:40.495Z,78.87
2023-02-19T07:13:42.036Z,78.81
2023-02-19T07:14:43.585Z,78.65
2023-02-19T07:15:45.117Z,77.40
2023-02-19T07:16:47.523Z,77.44
2023-02-19T07:17:49.158Z,76.08
2023-02-19T07:18:50.804Z,75.55
2023-02-19T07:19:52.406Z,75.86
2023-02-19T07:20:54.087Z,75.07
2023-02-19T07:21:55.827Z,74.55
2023-02-19T07:22:57.954Z,74.03
2023-02-19T07:23:59.517Z,75.15
2023-02-19T07:25:01.035Z,75.00
2023-02-19T07:26:03.032Z,75.36
2023-02-19T07:27:04.566Z,74.64
2023-02-19T07:28:06.714Z,74.06
2023-02-19T07:29:10.011Z,73.87
2023-02-19T07:30:11.865Z,72.12
2023-02-19T07:31:15.436Z,71.47
2023-02-19T07:32:17.190Z,71.45
2023-02-19T07:33:19.004Z,70.80
2023-02-19T07:34:20.929Z,70.88
2023-02-19T07:35:22.487Z,70.08
2023-02-19T07:36:24.767Z,69.48
2023-02-19T07:37:26.276Z,69.36
2023-02-19T07:38:28.002Z,69.11
2023-02-19T07:39:29.556Z,67.87
2023-02-19T07:40:31.111Z,67.91
2023-02-19T07:41:34.469Z,66.88
2023-02-19T07:42:36.092Z,66.45
2023-02-19T07:43:38.678Z,66.28
2023-02-19T07:44:40.283Z,67.74
2023-02-19T07:45:41.829Z,66.67
2023-02-19T07:46:43.791Z,66.35
2023-02-19T07:47:45.330Z,65.53
2023-02-19T07:48:46.862Z,65.46
2023-02-19T07:49:48.373Z,65.62
2023-02-19T07:50:58.275Z,66.28
2023-02-19T07:51:59.826Z,65.74
2023-02-19T07:53:01.374Z,65.39
2023-02-19T07:54:03.005Z,66.68
2023-02-19T07:55:04.757Z,64.34
2023-02-19T07:56:07.937Z,64.07
2023-02-19T07:57:09.460Z,65.40
2023-02-19T07:58:11.080Z,64.93
2023-02-19T07:59:12.666Z,63.77
2023-02-19T08:00:14.477Z,65.03
2023-02-19T08:01:19.058Z,64.39
2023-02-19T08:02:39.754Z,64.03
2023-02-19T08:03:42.302Z,63.14
2023-02-19T08:04:45.657Z,63.45
2023-02-19T08:05:49.795Z,62.56
2023-02-19T08:06:53.164Z,61.80
2023-02-19T08:07:54.917Z,61.99
2023-02-19T08:08:57.881Z,62.01
2023-02-19T08:10:18.415Z,62.28
2023-02-19T08:11:38.504Z,60.44
2023-02-19T08:13:08.989Z,61.86
2023-02-19T08:14:10.943Z,61.17
2023-02-19T08:15:12.490Z,60.76
2023-02-19T08:16:24.389Z,61.00
2023-02-19T08:17:34.900Z,62.53
2023-02-19T08:18:36.841Z,62.08
2023-02-19T08:19:38.415Z,60.43
2023-02-19T08:20:40.578Z,60.91
2023-02-19T08:21:42.156Z,59.74
2023-02-19T08:22:43.725Z,60.44
2023-02-19T08:23:46.456Z,69.03
2023-02-19T08:24:47.971Z,62.08
2023-02-19T08:25:51.100Z,58.71
2023-02-19T08:26:53.301Z,58.28
2023-02-19T08:27:54.888Z,58.41
2023-02-19T08:28:56.477Z,57.33
2023-02-19T08:29:58.006Z,57.42
2023-02-19T08:31:02.086Z,55.73
2023-02-19T08:32:03.780Z,55.88
2023-02-19T08:33:07.098Z,55.72
2023-02-19T08:34:08.645Z,56.49
2023-02-19T08:35:10.667Z,55.69
2023-02-19T08:36:12.325Z,54.61
2023-02-19T08:37:13.899Z,55.42
2023-02-19T08:38:16.519Z,55.49
2023-02-19T08:39:20.139Z,54.70
2023-02-19T08:40:22.983Z,55.56
2023-02-19T08:41:24.536Z,55.86
2023-02-19T08:42:26.087Z,55.78
2023-02-19T08:43:27.642Z,55.60
2023-02-19T08:44:29.759Z,54.67
2023-02-19T08:45:31.629Z,54.95
2023-02-19T08:46:34.505Z,54.35
2023-02-19T08:47:36.676Z,53.70
2023-02-19T08:48:39.312Z,53.92
2023-02-19T08:49:40.866Z,55.16
2023-02-19T08:50:42.545Z,54.28
2023-02-19T08:51:44.149Z,55.07
2023-02-19T08:52:45.739Z,54.96
2023-02-19T08:53:47.346Z,53.88
2023-02-19T08:54:48.919Z,53.84
2023-02-19T08:55:50.872Z,52.68
2023-02-19T08:56:52.419Z,52.45
2023-02-19T08:57:54.089Z,51.40
2023-02-19T08:58:55.619Z,51.21
2023-02-19T08:59:57.383Z,50.49
2023-02-19T09:00:59.111Z,52.82
2023-02-19T09:02:00.959Z,53.84
2023-02-19T09:03:02.547Z,53.72
2023-02-19T09:04:04.296Z,53.95
2023-02-19T09:05:06.079Z,54.81
2023-02-19T09:06:08.349Z,55.64
2023-02-19T09:07:12.349Z,55.15
2023-02-19T09:08:13.992Z,55.35
2023-02-19T09:09:15.601Z,55.20
2023-02-19T09:10:17.175Z,55.49
2023-02-19T09:11:18.791Z,54.91
2023-02-19T09:12:20.991Z,55.26
2023-02-19T09:13:22.554Z,55.42
2023-02-19T09:14:24.078Z,55.34
2023-02-19T09:15:25.832Z,56.56
2023-02-19T09:16:27.426Z,55.70
2023-02-19T09:17:29.006Z,56.13
2023-02-19T09:18:30.610Z,56.01
2023-02-19T09:19:32.316Z,56.00
2023-02-19T09:20:33.930Z,56.04
2023-02-19T09:21:35.462Z,55.10
2023-02-19T09:22:37.151Z,54.58
2023-02-19T09:23:38.731Z,55.80
2023-02-19T09:26:00.141Z,56.99
2023-02-19T09:27:02.373Z,55.49
2023-02-19T09:28:04.370Z,55.98
2023-02-19T09:29:08.156Z,56.16
2023-02-19T09:30:10.383Z,54.98
2023-02-19T09:31:15.949Z,55.48
2023-02-19T09:32:19.346Z,55.70
2023-02-19T09:33:21.004Z,55.47
2023-02-19T09:34:22.644Z,53.17
2023-02-19T09:35:24.331Z,53.90
2023-02-19T09:36:25.898Z,54.33
2023-02-19T09:37:28.025Z,53.79
2023-02-19T09:38:31.025Z,55.25
2023-02-19T09:39:33.944Z,54.19
2023-02-19T09:40:36.274Z,54.91
2023-02-19T09:41:47.103Z,53.96
2023-02-19T09:42:51.221Z,53.97
2023-02-19T09:43:52.965Z,54.25
2023-02-19T09:44:57.594Z,53.01
2023-02-19T09:46:09.768Z,53.75
2023-02-19T09:47:23.613Z,53.07
2023-02-19T09:48:25.308Z,52.42
2023-02-19T09:49:36.172Z,52.65
2023-02-19T09:50:41.532Z,52.65
2023-02-19T09:51:49.167Z,51.88
2023-02-19T09:52:58.239Z,51.85
2023-02-19T09:54:00.954Z,50.98
2023-02-19T09:55:13.158Z,51.82
2023-02-19T09:56:14.944Z,51.44
2023-02-19T09:57:21.347Z,51.07
2023-02-19T09:58:28.084Z,51.46
2023-02-19T09:59:40.641Z,49.47
2023-02-19T10:00:42.804Z,50.09
2023-02-19T10:01:45.315Z,50.73
2023-02-19T10:02:47.091Z,50.34
2023-02-19T10:03:50.296Z,49.47
2023-02-19T10:04:53.018Z,50.19
2023-02-19T10:05:56.511Z,51.43
2023-02-19T10:07:03.429Z,51.09
2023-02-19T10:08:08.875Z,48.91
2023-02-19T10:09:26.958Z,49.62
2023-02-19T10:10:34.343Z,50.06
2023-02-19T10:11:36.046Z,49.71
2023-02-19T10:12:37.845Z,48.71
2023-02-19T10:13:47.424Z,48.45
2023-02-19T10:14:51.612Z,48.15
2023-02-19T10:15:56.983Z,46.97
2023-02-19T10:17:03.549Z,48.01
2023-02-19T10:18:08.822Z,50.59
2023-02-19T10:19:16.337Z,46.48
2023-02-19T10:20:24.664Z,46.77
2023-02-19T10:21:28.066Z,46.40
2023-02-19T10:22:31.604Z,48.56
2023-02-19T10:23:34.098Z,46.17
2023-02-19T10:24:38.498Z,46.41
2023-02-19T10:25:46.444Z,46.61
2023-02-19T10:26:49.633Z,46.31
2023-02-19T10:27:51.222Z,46.05
2023-02-19T10:28:54.710Z,45.82
2023-02-19T10:29:56.678Z,46.66
2023-02-19T10:31:00.366Z,47.66
2023-02-19T10:32:21.245Z,46.46
2023-02-19T10:33:23.659Z,45.68
2023-02-19T10:34:25.737Z,45.07
2023-02-19T10:35:27.949Z,44.98
2023-02-19T10:36:34.008Z,45.19
2023-02-19T10:37:41.755Z,45.35
2023-02-19T10:38:47.958Z,46.49
2023-02-19T10:39:50.816Z,45.66
2023-02-19T10:41:13.799Z,45.15
2023-02-19T10:42:23.385Z,46.02
2023-02-19T10:43:34.088Z,46.25
2023-02-19T10:44:42.585Z,45.51
2023-02-19T10:45:50.536Z,45.39
2023-02-19T10:46:57.485Z,45.63
2023-02-19T10:48:00.104Z,45.37
2023-02-19T10:49:17.794Z,44.14
2023-02-19T10:50:25.578Z,45.22
2023-02-19T10:51:36.604Z,43.95
2023-02-19T10:52:38.511Z,44.03
2023-02-19T10:53:44.167Z,44.91
2023-02-19T10:54:49.367Z,46.00
2023-02-19T10:56:10.843Z,44.04
2023-02-19T10:57:15.552Z,44.08
2023-02-19T10:58:30.353Z,44.23
2023-02-19T10:59:31.941Z,41.90
2023-02-19T11:00:33.523Z,41.44
2023-02-19T11:01:35.102Z,41.93
2023-02-19T11:02:36.650Z,43.34
2023-02-19T11:03:38.890Z,42.93
2023-02-19T11:04:40.529Z,42.88
2023-02-19T11:06:11.084Z,42.21
2023-02-19T11:07:18.671Z,41.33
2023-02-19T11:08:23.225Z,39.71
2023-02-19T11:09:27.294Z,40.23
2023-02-19T11:10:44.957Z,40.38
2023-02-19T11:11:52.068Z,40.81
2023-02-19T11:13:05.954Z,40.81
2023-02-19T11:14:24.905Z,40.62
2023-02-19T11:15:29.267Z,41.52
2023-02-19T11:16:39.985Z,41.27
2023-02-19T11:17:42.039Z,41.27
2023-02-19T11:18:45.086Z,41.81
2023-02-19T11:19:48.721Z,42.06
2023-02-19T11:21:05.416Z,39.82
2023-02-19T11:22:30.442Z,41.50
2023-02-19T11:23:37.612Z,40.49
2023-02-19T11:24:40.591Z,40.95
2023-02-19T11:25:47.640Z,40.27
2023-02-19T11:26:49.230Z,40.68
2023-02-19T11:27:55.123Z,40.34
2023-02-19T11:29:01.581Z,40.05
2023-02-19T11:30:33.920Z,39.40
2023-02-19T11:31:37.551Z,39.52
2023-02-19T11:32:39.182Z,39.34
2023-02-19T11:33:48.345Z,39.46
2023-02-19T11:34:50.033Z,39.79
2023-02-19T11:35:58.861Z,39.78
2023-02-19T11:37:21.077Z,39.47
2023-02-19T11:38:22.673Z,39.79
2023-02-19T11:39:32.117Z,39.96
2023-02-19T11:40:45.033Z,39.84
2023-02-19T11:42:21.152Z,39.26
2023-02-19T11:43:31.762Z,39.96
2023-02-19T11:44:39.768Z,39.70
2023-02-19T11:45:47.009Z,39.56
2023-02-19T11:47:19.344Z,39.70
2023-02-19T11:48:51.057Z,39.47
2023-02-19T11:50:21.587Z,39.46
2023-02-19T11:51:52.192Z,39.32
2023-02-19T11:53:16.508Z,38.71
2023-02-19T11:54:54.649Z,40.12
2023-02-19T11:56:08.591Z,38.32
2023-02-19T11:57:24.390Z,39.08
2023-02-19T11:58:37.780Z,38.10
2023-02-19T12:00:01.330Z,37.58
2023-02-19T12:01:39.942Z,38.07
2023-02-19T12:02:41.632Z,38.27
2023-02-19T12:04:26.799Z,37.54
2023-02-19T12:05:50.053Z,37.78
2023-02-19T12:07:29.765Z,38.32
2023-02-19T12:09:12.489Z,39.20
2023-02-19T12:10:29.056Z,38.57
2023-02-19T12:11:55.603Z,38.23
2023-02-19T12:13:24.917Z,37.42
2023-02-19T12:14:26.460Z,38.06
2023-02-19T12:16:05.234Z,37.71
2023-02-19T12:17:09.760Z,38.61
2023-02-19T12:18:36.228Z,38.05
2023-02-19T12:19:39.284Z,39.22
2023-02-19T12:21:20.933Z,39.10
2023-02-19T12:22:25.257Z,38.78
2023-02-19T12:23:26.719Z,38.15
2023-02-19T12:25:00.311Z,37.90
2023-02-19T12:26:32.683Z,37.20
2023-02-19T12:27:50.798Z,37.02
2023-02-19T12:29:11.274Z,36.50
2023-02-19T12:30:21.780Z,36.90
2023-02-19T12:31:53.517Z,36.02
2023-02-19T12:33:05.592Z,35.96
2023-02-19T12:34:25.231Z,35.88
2023-02-19T12:35:51.161Z,36.22
2023-02-19T12:36:58.690Z,36.64
2023-02-19T12:38:26.000Z,35.39
2023-02-19T12:40:02.228Z,35.56
2023-02-19T12:41:26.597Z,35.27
2023-02-19T12:42:55.837Z,36.79
2023-02-19T12:44:08.333Z,35.28
2023-02-19T12:45:34.214Z,35.22
2023-02-19T12:46:39.750Z,35.99
2023-02-19T12:47:43.422Z,35.77
2023-02-19T12:49:02.580Z,35.38
2023-02-19T12:50:22.514Z,35.02
2023-02-19T12:51:27.826Z,34.87
2023-02-19T12:52:36.830Z,35.60
2023-02-19T12:53:41.162Z,36.13
2023-02-19T12:54:46.531Z,35.34
2023-02-19T12:55:48.795Z,35.64
2023-02-19T12:56:59.906Z,34.87
2023-02-19T12:58:06.433Z,34.96
2023-02-19T12:59:33.451Z,34.76
2023-02-19T13:00:42.613Z,35.51
2023-02-19T13:01:56.415Z,34.80
2023-02-19T13:03:12.951Z,35.07
2023-02-19T13:04:28.190Z,35.63
2023-02-19T13:05:45.197Z,36.10
2023-02-19T13:07:09.401Z,34.98
2023-02-19T13:08:20.482Z,34.82
2023-02-19T13:09:42.255Z,35.24
2023-02-19T13:10:50.849Z,35.12
2023-02-19T13:12:02.583Z,35.21
2023-02-19T13:13:10.751Z,34.79
2023-02-19T13:14:29.296Z,34.88
2023-02-19T13:15:41.823Z,34.63
2023-02-19T13:16:48.600Z,34.83
2023-02-19T13:17:57.000Z,35.01
2023-02-19T13:19:04.297Z,34.17
2023-02-19T13:20:32.687Z,34.60
2023-02-19T13:21:55.785Z,34.09
2023-02-19T13:23:37.306Z,34.45
2023-02-19T13:24:42.965Z,34.46
2023-02-19T13:25:44.475Z,34.65
2023-02-19T13:26:54.398Z,34.21
2023-02-19T13:28:02.018Z,34.48
2023-02-19T13:29:06.303Z,34.55
2023-02-19T13:30:22.734Z,34.73
2023-02-19T13:31:52.449Z,35.13
2023-02-19T13:33:11.663Z,35.22
2023-02-19T13:34:22.509Z,35.41
2023-02-19T13:35:52.906Z,35.20
2023-02-19T13:36:55.770Z,35.46
2023-02-19T13:38:02.261Z,35.75
2023-02-19T13:39:07.403Z,35.47
2023-02-19T13:40:34.945Z,35.20
2023-02-19T13:41:43.328Z,35.52
2023-02-19T13:42:52.717Z,35.66
2023-02-19T13:44:05.991Z,35.32
2023-02-19T13:45:19.791Z,34.67
2023-02-19T13:46:21.773Z,34.89
2023-02-19T13:47:45.140Z,34.96
2023-02-19T13:48:46.732Z,35.17
2023-02-19T13:49:52.284Z,34.80
2023-02-19T13:51:12.689Z,34.80
2023-02-19T13:52:29.702Z,34.85
2023-02-19T13:53:44.761Z,34.96
2023-02-19T13:54:46.348Z,34.98
2023-02-19T13:55:52.008Z,35.03
2023-02-19T13:57:18.270Z,34.73
2023-02-19T13:58:51.904Z,34.52
2023-02-19T13:59:58.200Z,34.82
2023-02-19T14:01:08.538Z,34.48
2023-02-19T14:02:20.604Z,34.78
2023-02-19T14:03:35.740Z,35.32
2023-02-19T14:04:51.551Z,34.21
2023-02-19T14:06:06.437Z,34.07
2023-02-19T14:07:08.015Z,34.05
2023-02-19T14:08:09.756Z,33.94
2023-02-19T14:09:40.631Z,34.02
2023-02-19T14:10:55.010Z,34.49
2023-02-19T14:12:04.245Z,34.56
2023-02-19T14:13:08.502Z,35.11
2023-02-19T14:14:35.206Z,34.75
2023-02-19T14:15:36.773Z,34.93
2023-02-19T14:16:38.331Z,35.34
2023-02-19T14:17:43.668Z,35.29
2023-02-19T14:18:46.558Z,35.38
2023-02-19T14:19:52.776Z,35.22
2023-02-19T14:21:07.613Z,35.08
2023-02-19T14:22:46.584Z,34.50
2023-02-19T14:23:53.607Z,34.02
2023-02-19T14:24:58.053Z,34.41
2023-02-19T14:26:01.271Z,34.79